sensor_id;sensor_type;location;lat;lon;timestamp;P1;durP1;ratioP1;P2;durP2;ratioP2
48629;SDS011;34426;52.180;4.462;2023-07-31T00:01:46;63.97;;;13.50;;
48629;SDS011;34426;52.180;4.462;2023-07-31T00:04:12;64.32;;;13.48;;
48629;SDS011;34426;52.180;4.462;2023-07-31T00:06:39;70.85;;;13.23;;
48629;SDS011;34426;52.180;4.462;2023-07-31T00:09:04;54.47;;;12.30;;
48629;SDS011;34426;52.180;4.462;2023-07-31T00:11:30;60.30;;;13.75;;
48629;SDS011;34426;52.180;4.462;2023-07-31T00:13:55;62.20;;;11.65;;
48629;SDS011;34426;52.180;4.462;2023-07-31T00:16:21;48.20;;;10.25;;
48629;SDS011;34426;52.180;4.462;2023-07-31T00:18:46;42.53;;;8.63;;
48629;SDS011;34426;52.180;4.462;2023-07-31T00:21:12;40.40;;;7.65;;
48629;SDS011;34426;52.180;4.462;2023-07-31T00:23:39;28.05;;;6.28;;
48629;SDS011;34426;52.180;4.462;2023-07-31T00:26:04;25.92;;;5.28;;
48629;SDS011;34426;52.180;4.462;2023-07-31T00:28:30;19.30;;;5.57;;
48629;SDS011;34426;52.180;4.462;2023-07-31T00:30:55;29.02;;;5.90;;
48629;SDS011;34426;52.180;4.462;2023-07-31T00:33:21;38.10;;;8.48;;
48629;SDS011;34426;52.180;4.462;2023-07-31T00:35:48;41.40;;;10.68;;
48629;SDS011;34426;52.180;4.462;2023-07-31T00:38:13;42.70;;;9.80;;
48629;SDS011;34426;52.180;4.462;2023-07-31T00:40:40;51.30;;;10.82;;
48629;SDS011;34426;52.180;4.462;2023-07-31T00:43:06;55.47;;;11.70;;
48629;SDS011;34426;52.180;4.462;2023-07-31T00:45:31;71.40;;;11.88;;
48629;SDS011;34426;52.180;4.462;2023-07-31T00:47:57;53.90;;;14.43;;
48629;SDS011;34426;52.180;4.462;2023-07-31T00:50:24;64.82;;;12.70;;
48629;SDS011;34426;52.180;4.462;2023-07-31T00:52:50;65.22;;;12.98;;
48629;SDS011;34426;52.180;4.462;2023-07-31T00:55:16;58.85;;;12.95;;
48629;SDS011;34426;52.180;4.462;2023-07-31T00:57:43;53.80;;;11.85;;
48629;SDS011;34426;52.180;4.462;2023-07-31T01:00:10;55.08;;;12.05;;
48629;SDS011;34426;52.180;4.462;2023-07-31T01:02:36;57.30;;;12.60;;
48629;SDS011;34426;52.180;4.462;2023-07-31T01:05:02;61.17;;;13.10;;
48629;SDS011;34426;52.180;4.462;2023-07-31T01:07:31;58.75;;;12.30;;
48629;SDS011;34426;52.180;4.462;2023-07-31T01:10:07;49.63;;;11.45;;
48629;SDS011;34426;52.180;4.462;2023-07-31T01:12:36;47.55;;;11.55;;
48629;SDS011;34426;52.180;4.462;2023-07-31T01:15:05;60.20;;;12.38;;
48629;SDS011;34426;52.180;4.462;2023-07-31T01:17:32;51.97;;;11.82;;
48629;SDS011;34426;52.180;4.462;2023-07-31T01:19:59;53.88;;;12.80;;
48629;SDS011;34426;52.180;4.462;2023-07-31T01:22:33;58.97;;;13.57;;
48629;SDS011;34426;52.180;4.462;2023-07-31T01:28:20;67.88;;;15.05;;
48629;SDS011;34426;52.180;4.462;2023-07-31T01:30:50;58.40;;;14.30;;
48629;SDS011;34426;52.180;4.462;2023-07-31T01:33:16;59.83;;;14.02;;
48629;SDS011;34426;52.180;4.462;2023-07-31T01:35:43;65.10;;;14.13;;
48629;SDS011;34426;52.180;4.462;2023-07-31T01:38:10;55.10;;;13.45;;
48629;SDS011;34426;52.180;4.462;2023-07-31T01:40:35;53.97;;;11.90;;
48629;SDS011;34426;52.180;4.462;2023-07-31T01:43:02;54.63;;;12.52;;
48629;SDS011;34426;52.180;4.462;2023-07-31T01:45:28;60.97;;;12.80;;
48629;SDS011;34426;52.180;4.462;2023-07-31T01:47:53;64.07;;;14.73;;
48629;SDS011;34426;52.180;4.462;2023-07-31T01:50:19;59.92;;;14.23;;
48629;SDS011;34426;52.180;4.462;2023-07-31T01:52:44;48.15;;;12.07;;
48629;SDS011;34426;52.180;4.462;2023-07-31T01:55:10;59.85;;;12.95;;
48629;SDS011;34426;52.180;4.462;2023-07-31T01:57:36;55.17;;;13.45;;
48629;SDS011;34426;52.180;4.462;2023-07-31T02:00:04;51.55;;;11.60;;
48629;SDS011;34426;52.180;4.462;2023-07-31T02:02:30;50.00;;;11.57;;
48629;SDS011;34426;52.180;4.462;2023-07-31T02:04:55;39.47;;;10.88;;
48629;SDS011;34426;52.180;4.462;2023-07-31T02:07:21;59.53;;;11.90;;
48629;SDS011;34426;52.180;4.462;2023-07-31T02:09:46;55.13;;;12.15;;
48629;SDS011;34426;52.180;4.462;2023-07-31T02:12:12;46.15;;;10.45;;
48629;SDS011;34426;52.180;4.462;2023-07-31T02:14:37;55.42;;;12.38;;
48629;SDS011;34426;52.180;4.462;2023-07-31T02:17:05;53.38;;;12.13;;
48629;SDS011;34426;52.180;4.462;2023-07-31T02:19:30;42.60;;;10.73;;
48629;SDS011;34426;52.180;4.462;2023-07-31T02:21:56;32.40;;;9.80;;
48629;SDS011;34426;52.180;4.462;2023-07-31T02:24:22;41.65;;;10.77;;
48629;SDS011;34426;52.180;4.462;2023-07-31T02:26:49;54.40;;;11.82;;
48629;SDS011;34426;52.180;4.462;2023-07-31T02:29:14;49.72;;;11.20;;
48629;SDS011;34426;52.180;4.462;2023-07-31T02:31:40;49.70;;;11.48;;
48629;SDS011;34426;52.180;4.462;2023-07-31T02:34:07;47.33;;;10.63;;
48629;SDS011;34426;52.180;4.462;2023-07-31T02:36:32;47.97;;;11.65;;
48629;SDS011;34426;52.180;4.462;2023-07-31T02:38:58;55.33;;;10.98;;
48629;SDS011;34426;52.180;4.462;2023-07-31T02:41:23;53.55;;;11.65;;
48629;SDS011;34426;52.180;4.462;2023-07-31T02:43:49;42.10;;;11.48;;
48629;SDS011;34426;52.180;4.462;2023-07-31T02:46:14;54.85;;;12.80;;
48629;SDS011;34426;52.180;4.462;2023-07-31T02:48:40;47.78;;;12.30;;
48629;SDS011;34426;52.180;4.462;2023-07-31T02:51:07;51.88;;;10.90;;
48629;SDS011;34426;52.180;4.462;2023-07-31T02:53:32;47.90;;;11.70;;
48629;SDS011;34426;52.180;4.462;2023-07-31T02:55:58;46.72;;;10.90;;
48629;SDS011;34426;52.180;4.462;2023-07-31T02:58:23;52.10;;;12.10;;
48629;SDS011;34426;52.180;4.462;2023-07-31T03:00:49;50.97;;;11.25;;
48629;SDS011;34426;52.180;4.462;2023-07-31T03:03:14;54.13;;;11.07;;
48629;SDS011;34426;52.180;4.462;2023-07-31T03:05:40;57.45;;;12.65;;
48629;SDS011;34426;52.180;4.462;2023-07-31T03:08:06;52.88;;;12.45;;
48629;SDS011;34426;52.180;4.462;2023-07-31T03:10:32;50.65;;;11.60;;
48629;SDS011;34426;52.180;4.462;2023-07-31T03:12:58;59.88;;;12.68;;
48629;SDS011;34426;52.180;4.462;2023-07-31T03:15:23;53.67;;;11.52;;
48629;SDS011;34426;52.180;4.462;2023-07-31T03:17:49;59.33;;;11.55;;
48629;SDS011;34426;52.180;4.462;2023-07-31T03:20:14;53.90;;;10.93;;
48629;SDS011;34426;52.180;4.462;2023-07-31T03:22:40;61.58;;;12.95;;
48629;SDS011;34426;52.180;4.462;2023-07-31T03:25:07;60.70;;;12.57;;
48629;SDS011;34426;52.180;4.462;2023-07-31T03:27:33;64.60;;;12.40;;
48629;SDS011;34426;52.180;4.462;2023-07-31T03:29:59;66.97;;;12.80;;
48629;SDS011;34426;52.180;4.462;2023-07-31T03:32:24;65.13;;;12.00;;
48629;SDS011;34426;52.180;4.462;2023-07-31T03:34:50;61.35;;;14.30;;
48629;SDS011;34426;52.180;4.462;2023-07-31T03:37:15;49.50;;;11.55;;
48629;SDS011;34426;52.180;4.462;2023-07-31T03:39:41;71.63;;;11.38;;
48629;SDS011;34426;52.180;4.462;2023-07-31T03:42:08;54.92;;;12.50;;
48629;SDS011;34426;52.180;4.462;2023-07-31T03:44:33;55.83;;;10.60;;
48629;SDS011;34426;52.180;4.462;2023-07-31T03:46:59;59.35;;;12.15;;
48629;SDS011;34426;52.180;4.462;2023-07-31T03:49:24;59.60;;;11.00;;
48629;SDS011;34426;52.180;4.462;2023-07-31T03:51:50;56.03;;;11.20;;
48629;SDS011;34426;52.180;4.462;2023-07-31T03:54:15;53.28;;;12.27;;
48629;SDS011;34426;52.180;4.462;2023-07-31T03:56:41;68.95;;;13.85;;
48629;SDS011;34426;52.180;4.462;2023-07-31T03:59:08;38.95;;;9.38;;
48629;SDS011;34426;52.180;4.462;2023-07-31T04:01:33;44.90;;;9.10;;
48629;SDS011;34426;52.180;4.462;2023-07-31T04:03:59;33.05;;;8.38;;
48629;SDS011;34426;52.180;4.462;2023-07-31T04:06:24;31.05;;;6.05;;
48629;SDS011;34426;52.180;4.462;2023-07-31T04:08:50;23.45;;;6.40;;
48629;SDS011;34426;52.180;4.462;2023-07-31T04:11:15;28.10;;;6.05;;
48629;SDS011;34426;52.180;4.462;2023-07-31T04:13:41;24.58;;;6.43;;
48629;SDS011;34426;52.180;4.462;2023-07-31T04:16:08;22.23;;;5.50;;
48629;SDS011;34426;52.180;4.462;2023-07-31T04:18:33;17.67;;;4.05;;
48629;SDS011;34426;52.180;4.462;2023-07-31T04:20:59;16.58;;;4.30;;
48629;SDS011;34426;52.180;4.462;2023-07-31T04:23:24;16.73;;;4.18;;
48629;SDS011;34426;52.180;4.462;2023-07-31T04:25:50;17.88;;;3.65;;
48629;SDS011;34426;52.180;4.462;2023-07-31T04:28:16;13.63;;;4.88;;
48629;SDS011;34426;52.180;4.462;2023-07-31T04:30:41;15.10;;;3.60;;
48629;SDS011;34426;52.180;4.462;2023-07-31T04:33:08;10.55;;;2.97;;
48629;SDS011;34426;52.180;4.462;2023-07-31T04:35:33;11.50;;;2.70;;
48629;SDS011;34426;52.180;4.462;2023-07-31T04:37:59;9.50;;;2.63;;
48629;SDS011;34426;52.180;4.462;2023-07-31T04:40:24;13.50;;;2.60;;
48629;SDS011;34426;52.180;4.462;2023-07-31T04:42:50;11.95;;;2.53;;
48629;SDS011;34426;52.180;4.462;2023-07-31T04:45:16;12.75;;;2.33;;
48629;SDS011;34426;52.180;4.462;2023-07-31T04:47:42;9.20;;;2.22;;
48629;SDS011;34426;52.180;4.462;2023-07-31T04:50:09;13.18;;;2.70;;
48629;SDS011;34426;52.180;4.462;2023-07-31T04:52:35;21.65;;;2.47;;
48629;SDS011;34426;52.180;4.462;2023-07-31T04:55:00;8.45;;;1.70;;
48629;SDS011;34426;52.180;4.462;2023-07-31T04:57:26;11.48;;;1.60;;
48629;SDS011;34426;52.180;4.462;2023-07-31T04:59:51;11.95;;;1.70;;
48629;SDS011;34426;52.180;4.462;2023-07-31T05:02:17;8.30;;;1.50;;
48629;SDS011;34426;52.180;4.462;2023-07-31T05:04:43;12.38;;;1.65;;
48629;SDS011;34426;52.180;4.462;2023-07-31T05:07:09;8.35;;;1.48;;
48629;SDS011;34426;52.180;4.462;2023-07-31T05:09:35;6.63;;;1.70;;
48629;SDS011;34426;52.180;4.462;2023-07-31T05:12:01;9.10;;;1.70;;
48629;SDS011;34426;52.180;4.462;2023-07-31T05:14:26;7.70;;;2.00;;
48629;SDS011;34426;52.180;4.462;2023-07-31T05:16:52;8.95;;;2.03;;
48629;SDS011;34426;52.180;4.462;2023-07-31T05:19:17;14.45;;;2.83;;
48629;SDS011;34426;52.180;4.462;2023-07-31T05:21:43;10.98;;;2.25;;
48629;SDS011;34426;52.180;4.462;2023-07-31T05:24:10;12.23;;;2.63;;
48629;SDS011;34426;52.180;4.462;2023-07-31T05:26:36;10.50;;;2.40;;
48629;SDS011;34426;52.180;4.462;2023-07-31T05:29:01;8.55;;;1.63;;
48629;SDS011;34426;52.180;4.462;2023-07-31T05:31:27;9.35;;;2.30;;
48629;SDS011;34426;52.180;4.462;2023-07-31T05:33:52;8.13;;;1.77;;
48629;SDS011;34426;52.180;4.462;2023-07-31T05:36:18;8.43;;;2.08;;
48629;SDS011;34426;52.180;4.462;2023-07-31T05:38:43;7.20;;;2.00;;
48629;SDS011;34426;52.180;4.462;2023-07-31T05:41:10;13.45;;;3.55;;
48629;SDS011;34426;52.180;4.462;2023-07-31T05:43:36;12.75;;;3.22;;
48629;SDS011;34426;52.180;4.462;2023-07-31T05:46:02;20.30;;;4.03;;
48629;SDS011;34426;52.180;4.462;2023-07-31T05:48:27;15.38;;;3.13;;
48629;SDS011;34426;52.180;4.462;2023-07-31T05:50:53;10.63;;;3.10;;
48629;SDS011;34426;52.180;4.462;2023-07-31T05:53:18;12.57;;;3.83;;
48629;SDS011;34426;52.180;4.462;2023-07-31T05:55:44;9.63;;;3.13;;
48629;SDS011;34426;52.180;4.462;2023-07-31T05:58:11;10.63;;;2.63;;
48629;SDS011;34426;52.180;4.462;2023-07-31T06:00:36;12.90;;;3.63;;
48629;SDS011;34426;52.180;4.462;2023-07-31T06:03:02;15.13;;;3.47;;
48629;SDS011;34426;52.180;4.462;2023-07-31T06:05:28;18.60;;;3.30;;
48629;SDS011;34426;52.180;4.462;2023-07-31T06:07:53;18.08;;;3.80;;
48629;SDS011;34426;52.180;4.462;2023-07-31T06:10:19;12.50;;;3.65;;
48629;SDS011;34426;52.180;4.462;2023-07-31T06:12:44;21.02;;;3.65;;
48629;SDS011;34426;52.180;4.462;2023-07-31T06:15:11;19.50;;;3.20;;
48629;SDS011;34426;52.180;4.462;2023-07-31T06:17:37;18.27;;;3.95;;
48629;SDS011;34426;52.180;4.462;2023-07-31T06:20:02;20.90;;;4.90;;
48629;SDS011;34426;52.180;4.462;2023-07-31T06:22:29;19.75;;;5.15;;
48629;SDS011;34426;52.180;4.462;2023-07-31T06:24:54;22.95;;;5.43;;
48629;SDS011;34426;52.180;4.462;2023-07-31T06:27:20;25.60;;;4.75;;
48629;SDS011;34426;52.180;4.462;2023-07-31T06:29:45;28.20;;;5.55;;
48629;SDS011;34426;52.180;4.462;2023-07-31T06:32:12;21.83;;;4.90;;
48629;SDS011;34426;52.180;4.462;2023-07-31T06:34:37;22.73;;;5.03;;
48629;SDS011;34426;52.180;4.462;2023-07-31T06:37:03;18.55;;;4.60;;
48629;SDS011;34426;52.180;4.462;2023-07-31T06:39:29;28.33;;;4.80;;
48629;SDS011;34426;52.180;4.462;2023-07-31T06:41:54;28.70;;;5.22;;
48629;SDS011;34426;52.180;4.462;2023-07-31T06:44:20;22.23;;;5.38;;
48629;SDS011;34426;52.180;4.462;2023-07-31T06:46:45;24.02;;;5.38;;
48629;SDS011;34426;52.180;4.462;2023-07-31T06:49:12;23.73;;;6.00;;
48629;SDS011;34426;52.180;4.462;2023-07-31T06:51:38;26.90;;;5.68;;
48629;SDS011;34426;52.180;4.462;2023-07-31T06:54:03;21.20;;;5.60;;
48629;SDS011;34426;52.180;4.462;2023-07-31T06:56:29;33.70;;;6.40;;
48629;SDS011;34426;52.180;4.462;2023-07-31T06:58:54;26.95;;;6.18;;
48629;SDS011;34426;52.180;4.462;2023-07-31T07:01:20;37.50;;;6.40;;
48629;SDS011;34426;52.180;4.462;2023-07-31T07:03:46;27.08;;;5.90;;
48629;SDS011;34426;52.180;4.462;2023-07-31T07:06:12;37.15;;;8.45;;
48629;SDS011;34426;52.180;4.462;2023-07-31T07:08:38;43.53;;;8.55;;
48629;SDS011;34426;52.180;4.462;2023-07-31T07:11:03;38.08;;;7.53;;
48629;SDS011;34426;52.180;4.462;2023-07-31T07:13:29;35.83;;;7.13;;
48629;SDS011;34426;52.180;4.462;2023-07-31T07:15:54;27.90;;;6.25;;
48629;SDS011;34426;52.180;4.462;2023-07-31T07:18:20;31.25;;;6.93;;
48629;SDS011;34426;52.180;4.462;2023-07-31T07:20:46;24.10;;;6.05;;
48629;SDS011;34426;52.180;4.462;2023-07-31T07:23:13;25.55;;;5.90;;
48629;SDS011;34426;52.180;4.462;2023-07-31T07:25:39;21.40;;;5.63;;
48629;SDS011;34426;52.180;4.462;2023-07-31T07:28:04;23.27;;;6.45;;
48629;SDS011;34426;52.180;4.462;2023-07-31T07:30:30;35.53;;;7.57;;
48629;SDS011;34426;52.180;4.462;2023-07-31T07:32:55;32.72;;;6.32;;
48629;SDS011;34426;52.180;4.462;2023-07-31T07:35:21;24.15;;;5.75;;
48629;SDS011;34426;52.180;4.462;2023-07-31T07:37:48;32.42;;;6.32;;
48629;SDS011;34426;52.180;4.462;2023-07-31T07:40:15;30.65;;;7.28;;
48629;SDS011;34426;52.180;4.462;2023-07-31T07:42:40;36.17;;;6.68;;
48629;SDS011;34426;52.180;4.462;2023-07-31T07:45:06;29.10;;;6.30;;
48629;SDS011;34426;52.180;4.462;2023-07-31T07:47:32;35.65;;;7.50;;
48629;SDS011;34426;52.180;4.462;2023-07-31T07:49:58;34.20;;;6.53;;
48629;SDS011;34426;52.180;4.462;2023-07-31T07:52:23;42.13;;;9.38;;
48629;SDS011;34426;52.180;4.462;2023-07-31T07:54:49;32.55;;;6.90;;
48629;SDS011;34426;52.180;4.462;2023-07-31T07:57:16;39.00;;;7.13;;
48629;SDS011;34426;52.180;4.462;2023-07-31T07:59:41;37.92;;;6.43;;
48629;SDS011;34426;52.180;4.462;2023-07-31T08:02:07;31.67;;;6.28;;
48629;SDS011;34426;52.180;4.462;2023-07-31T08:04:33;26.48;;;6.22;;
48629;SDS011;34426;52.180;4.462;2023-07-31T08:06:58;36.38;;;6.78;;
48629;SDS011;34426;52.180;4.462;2023-07-31T08:09:24;37.25;;;6.63;;
48629;SDS011;34426;52.180;4.462;2023-07-31T08:11:49;42.03;;;6.93;;
48629;SDS011;34426;52.180;4.462;2023-07-31T08:14:16;34.38;;;6.57;;
48629;SDS011;34426;52.180;4.462;2023-07-31T08:16:42;45.28;;;7.07;;
48629;SDS011;34426;52.180;4.462;2023-07-31T08:19:07;50.53;;;6.95;;
48629;SDS011;34426;52.180;4.462;2023-07-31T08:21:33;44.40;;;9.00;;
48629;SDS011;34426;52.180;4.462;2023-07-31T08:23:58;51.97;;;7.22;;
48629;SDS011;34426;52.180;4.462;2023-07-31T08:26:24;46.60;;;8.20;;
48629;SDS011;34426;52.180;4.462;2023-07-31T08:28:49;38.67;;;6.82;;
48629;SDS011;34426;52.180;4.462;2023-07-31T08:31:16;39.60;;;7.18;;
48629;SDS011;34426;52.180;4.462;2023-07-31T08:33:42;40.58;;;6.47;;
48629;SDS011;34426;52.180;4.462;2023-07-31T08:36:07;43.67;;;5.65;;
48629;SDS011;34426;52.180;4.462;2023-07-31T08:38:33;36.58;;;7.40;;
48629;SDS011;34426;52.180;4.462;2023-07-31T08:40:59;38.05;;;7.93;;
48629;SDS011;34426;52.180;4.462;2023-07-31T08:43:25;47.78;;;6.97;;
48629;SDS011;34426;52.180;4.462;2023-07-31T08:45:51;39.67;;;7.70;;
48629;SDS011;34426;52.180;4.462;2023-07-31T08:48:18;37.50;;;6.47;;
48629;SDS011;34426;52.180;4.462;2023-07-31T08:50:44;54.85;;;7.50;;
48629;SDS011;34426;52.180;4.462;2023-07-31T08:53:10;42.88;;;6.25;;
48629;SDS011;34426;52.180;4.462;2023-07-31T08:55:36;42.83;;;6.38;;
48629;SDS011;34426;52.180;4.462;2023-07-31T08:58:03;36.80;;;6.63;;
48629;SDS011;34426;52.180;4.462;2023-07-31T09:00:29;40.63;;;7.05;;
48629;SDS011;34426;52.180;4.462;2023-07-31T09:02:59;36.20;;;6.15;;
48629;SDS011;34426;52.180;4.462;2023-07-31T09:05:28;38.85;;;6.30;;
48629;SDS011;34426;52.180;4.462;2023-07-31T09:07:55;36.33;;;7.30;;
48629;SDS011;34426;52.180;4.462;2023-07-31T09:10:22;31.92;;;5.97;;
48629;SDS011;34426;52.180;4.462;2023-07-31T09:12:48;38.97;;;7.03;;
48629;SDS011;34426;52.180;4.462;2023-07-31T09:15:14;40.88;;;7.07;;
48629;SDS011;34426;52.180;4.462;2023-07-31T09:17:40;49.20;;;7.95;;
48629;SDS011;34426;52.180;4.462;2023-07-31T09:20:15;35.97;;;6.47;;
48629;SDS011;34426;52.180;4.462;2023-07-31T09:22:43;30.98;;;6.45;;
48629;SDS011;34426;52.180;4.462;2023-07-31T09:25:16;37.05;;;7.00;;
48629;SDS011;34426;52.180;4.462;2023-07-31T09:27:45;31.35;;;5.03;;
48629;SDS011;34426;52.180;4.462;2023-07-31T09:30:12;30.20;;;5.00;;
48629;SDS011;34426;52.180;4.462;2023-07-31T09:32:37;40.17;;;7.03;;
48629;SDS011;34426;52.180;4.462;2023-07-31T09:35:06;38.13;;;5.95;;
48629;SDS011;34426;52.180;4.462;2023-07-31T09:37:38;41.05;;;6.18;;
48629;SDS011;34426;52.180;4.462;2023-07-31T09:40:05;39.47;;;5.47;;
48629;SDS011;34426;52.180;4.462;2023-07-31T09:42:32;29.98;;;5.57;;
48629;SDS011;34426;52.180;4.462;2023-07-31T09:45:06;34.80;;;5.85;;
48629;SDS011;34426;52.180;4.462;2023-07-31T09:47:32;27.80;;;5.55;;
48629;SDS011;34426;52.180;4.462;2023-07-31T09:49:58;30.23;;;4.90;;
48629;SDS011;34426;52.180;4.462;2023-07-31T09:52:25;28.38;;;5.53;;
48629;SDS011;34426;52.180;4.462;2023-07-31T09:54:51;38.97;;;5.88;;
48629;SDS011;34426;52.180;4.462;2023-07-31T09:57:18;25.52;;;5.30;;
48629;SDS011;34426;52.180;4.462;2023-07-31T09:59:47;25.70;;;5.28;;
48629;SDS011;34426;52.180;4.462;2023-07-31T10:02:14;32.00;;;6.75;;
48629;SDS011;34426;52.180;4.462;2023-07-31T10:04:44;30.90;;;5.95;;
48629;SDS011;34426;52.180;4.462;2023-07-31T10:07:12;33.60;;;6.30;;
48629;SDS011;34426;52.180;4.462;2023-07-31T10:09:39;30.40;;;5.40;;
48629;SDS011;34426;52.180;4.462;2023-07-31T10:12:05;35.63;;;5.85;;
48629;SDS011;34426;52.180;4.462;2023-07-31T10:14:37;29.77;;;6.15;;
48629;SDS011;34426;52.180;4.462;2023-07-31T10:17:04;34.15;;;6.53;;
48629;SDS011;34426;52.180;4.462;2023-07-31T10:19:30;31.83;;;5.15;;
48629;SDS011;34426;52.180;4.462;2023-07-31T10:21:57;26.30;;;5.15;;
48629;SDS011;34426;52.180;4.462;2023-07-31T10:24:23;37.03;;;6.65;;
48629;SDS011;34426;52.180;4.462;2023-07-31T10:26:49;22.20;;;4.85;;
48629;SDS011;34426;52.180;4.462;2023-07-31T10:29:18;21.55;;;4.70;;
48629;SDS011;34426;52.180;4.462;2023-07-31T10:31:46;24.52;;;5.50;;
48629;SDS011;34426;52.180;4.462;2023-07-31T10:34:13;26.17;;;4.60;;
48629;SDS011;34426;52.180;4.462;2023-07-31T10:36:39;23.88;;;5.30;;
48629;SDS011;34426;52.180;4.462;2023-07-31T10:39:05;30.48;;;5.90;;
48629;SDS011;34426;52.180;4.462;2023-07-31T10:42:06;33.00;;;5.38;;
48629;SDS011;34426;52.180;4.462;2023-07-31T10:44:35;23.08;;;4.82;;
48629;SDS011;34426;52.180;4.462;2023-07-31T10:47:02;27.15;;;5.18;;
48629;SDS011;34426;52.180;4.462;2023-07-31T10:49:28;23.75;;;5.05;;
48629;SDS011;34426;52.180;4.462;2023-07-31T10:51:54;31.40;;;5.88;;
48629;SDS011;34426;52.180;4.462;2023-07-31T10:54:21;19.02;;;3.70;;
48629;SDS011;34426;52.180;4.462;2023-07-31T10:56:46;34.65;;;6.13;;
48629;SDS011;34426;52.180;4.462;2023-07-31T10:59:15;25.60;;;4.93;;
48629;SDS011;34426;52.180;4.462;2023-07-31T11:01:49;22.73;;;4.38;;
48629;SDS011;34426;52.180;4.462;2023-07-31T11:04:17;21.33;;;5.75;;
48629;SDS011;34426;52.180;4.462;2023-07-31T11:06:55;24.02;;;4.90;;
48629;SDS011;34426;52.180;4.462;2023-07-31T11:09:21;19.83;;;4.13;;
48629;SDS011;34426;52.180;4.462;2023-07-31T11:11:46;21.35;;;3.10;;
48629;SDS011;34426;52.180;4.462;2023-07-31T11:14:12;20.55;;;4.45;;
48629;SDS011;34426;52.180;4.462;2023-07-31T11:16:37;24.35;;;5.30;;
48629;SDS011;34426;52.180;4.462;2023-07-31T11:19:08;23.23;;;4.25;;
48629;SDS011;34426;52.180;4.462;2023-07-31T11:21:35;20.92;;;3.83;;
48629;SDS011;34426;52.180;4.462;2023-07-31T11:24:01;21.13;;;4.03;;
48629;SDS011;34426;52.180;4.462;2023-07-31T11:26:27;22.67;;;4.03;;
48629;SDS011;34426;52.180;4.462;2023-07-31T11:28:53;28.25;;;5.70;;
48629;SDS011;34426;52.180;4.462;2023-07-31T11:31:19;27.20;;;4.53;;
48629;SDS011;34426;52.180;4.462;2023-07-31T11:33:45;15.45;;;4.32;;
48629;SDS011;34426;52.180;4.462;2023-07-31T11:36:14;14.45;;;3.78;;
48629;SDS011;34426;52.180;4.462;2023-07-31T11:38:41;19.10;;;3.85;;
48629;SDS011;34426;52.180;4.462;2023-07-31T11:41:07;28.85;;;4.45;;
48629;SDS011;34426;52.180;4.462;2023-07-31T11:43:32;17.83;;;3.38;;
48629;SDS011;34426;52.180;4.462;2023-07-31T11:45:59;21.15;;;3.63;;
48629;SDS011;34426;52.180;4.462;2023-07-31T11:48:26;21.75;;;3.72;;
48629;SDS011;34426;52.180;4.462;2023-07-31T11:50:54;19.00;;;4.13;;
48629;SDS011;34426;52.180;4.462;2023-07-31T11:53:24;22.95;;;3.70;;
48629;SDS011;34426;52.180;4.462;2023-07-31T11:55:53;23.63;;;4.25;;
48629;SDS011;34426;52.180;4.462;2023-07-31T11:58:20;25.95;;;4.38;;
48629;SDS011;34426;52.180;4.462;2023-07-31T12:00:46;20.67;;;3.42;;
48629;SDS011;34426;52.180;4.462;2023-07-31T12:03:13;25.98;;;3.92;;
48629;SDS011;34426;52.180;4.462;2023-07-31T12:05:42;19.83;;;3.83;;
48629;SDS011;34426;52.180;4.462;2023-07-31T12:08:11;17.83;;;4.07;;
48629;SDS011;34426;52.180;4.462;2023-07-31T12:10:37;14.38;;;2.80;;
48629;SDS011;34426;52.180;4.462;2023-07-31T12:13:05;14.43;;;3.40;;
48629;SDS011;34426;52.180;4.462;2023-07-31T12:15:37;15.65;;;2.83;;
48629;SDS011;34426;52.180;4.462;2023-07-31T12:18:06;20.73;;;3.33;;
48629;SDS011;34426;52.180;4.462;2023-07-31T12:20:32;13.05;;;3.15;;
48629;SDS011;34426;52.180;4.462;2023-07-31T12:22:58;21.30;;;3.63;;
48629;SDS011;34426;52.180;4.462;2023-07-31T12:25:30;15.85;;;3.10;;
48629;SDS011;34426;52.180;4.462;2023-07-31T12:28:06;12.20;;;3.00;;
48629;SDS011;34426;52.180;4.462;2023-07-31T12:30:32;12.50;;;3.25;;
48629;SDS011;34426;52.180;4.462;2023-07-31T12:33:02;16.17;;;3.15;;
48629;SDS011;34426;52.180;4.462;2023-07-31T12:35:34;18.88;;;3.25;;
48629;SDS011;34426;52.180;4.462;2023-07-31T12:38:01;16.20;;;3.20;;
48629;SDS011;34426;52.180;4.462;2023-07-31T12:40:26;19.92;;;4.07;;
48629;SDS011;34426;52.180;4.462;2023-07-31T12:42:52;15.18;;;3.55;;
48629;SDS011;34426;52.180;4.462;2023-07-31T12:45:19;12.23;;;2.60;;
48629;SDS011;34426;52.180;4.462;2023-07-31T12:47:44;12.07;;;3.30;;
48629;SDS011;34426;52.180;4.462;2023-07-31T12:50:10;13.55;;;2.67;;
48629;SDS011;34426;52.180;4.462;2023-07-31T12:52:36;18.80;;;3.17;;
48629;SDS011;34426;52.180;4.462;2023-07-31T12:55:01;16.95;;;3.10;;
48629;SDS011;34426;52.180;4.462;2023-07-31T12:57:27;14.43;;;2.70;;
48629;SDS011;34426;52.180;4.462;2023-07-31T12:59:53;12.15;;;2.53;;
48629;SDS011;34426;52.180;4.462;2023-07-31T13:02:20;11.48;;;2.10;;
48629;SDS011;34426;52.180;4.462;2023-07-31T13:04:49;15.50;;;2.58;;
48629;SDS011;34426;52.180;4.462;2023-07-31T13:07:15;13.70;;;2.45;;
48629;SDS011;34426;52.180;4.462;2023-07-31T13:09:40;15.70;;;2.45;;
48629;SDS011;34426;52.180;4.462;2023-07-31T13:12:06;9.50;;;2.10;;
48629;SDS011;34426;52.180;4.462;2023-07-31T13:14:32;6.57;;;1.92;;
48629;SDS011;34426;52.180;4.462;2023-07-31T13:16:58;10.02;;;1.52;;
48629;SDS011;34426;52.180;4.462;2023-07-31T13:19:28;6.70;;;1.50;;
48629;SDS011;34426;52.180;4.462;2023-07-31T13:21:53;7.07;;;1.70;;
48629;SDS011;34426;52.180;4.462;2023-07-31T13:24:19;10.13;;;2.25;;
48629;SDS011;34426;52.180;4.462;2023-07-31T13:26:44;10.43;;;2.25;;
48629;SDS011;34426;52.180;4.462;2023-07-31T13:29:10;15.30;;;3.00;;
48629;SDS011;34426;52.180;4.462;2023-07-31T13:31:36;9.90;;;2.92;;
48629;SDS011;34426;52.180;4.462;2023-07-31T13:34:01;17.48;;;3.50;;
48629;SDS011;34426;52.180;4.462;2023-07-31T13:36:28;19.10;;;3.90;;
48629;SDS011;34426;52.180;4.462;2023-07-31T13:38:54;30.27;;;4.25;;
48629;SDS011;34426;52.180;4.462;2023-07-31T13:41:20;23.17;;;4.07;;
48629;SDS011;34426;52.180;4.462;2023-07-31T13:43:46;17.95;;;3.63;;
48629;SDS011;34426;52.180;4.462;2023-07-31T13:46:11;24.75;;;5.32;;
48629;SDS011;34426;52.180;4.462;2023-07-31T13:48:37;24.77;;;4.18;;
48629;SDS011;34426;52.180;4.462;2023-07-31T13:51:02;21.75;;;4.53;;
48629;SDS011;34426;52.180;4.462;2023-07-31T13:53:29;21.60;;;4.25;;
48629;SDS011;34426;52.180;4.462;2023-07-31T13:55:55;19.63;;;3.92;;
48629;SDS011;34426;52.180;4.462;2023-07-31T13:58:21;14.82;;;3.47;;
48629;SDS011;34426;52.180;4.462;2023-07-31T14:00:46;19.15;;;3.65;;
48629;SDS011;34426;52.180;4.462;2023-07-31T14:03:12;22.08;;;4.43;;
48629;SDS011;34426;52.180;4.462;2023-07-31T14:05:37;32.67;;;4.70;;
48629;SDS011;34426;52.180;4.462;2023-07-31T14:08:03;23.50;;;4.00;;
48629;SDS011;34426;52.180;4.462;2023-07-31T14:10:30;22.95;;;4.53;;
48629;SDS011;34426;52.180;4.462;2023-07-31T14:12:56;20.40;;;4.10;;
48629;SDS011;34426;52.180;4.462;2023-07-31T14:15:21;18.83;;;4.13;;
48629;SDS011;34426;52.180;4.462;2023-07-31T14:17:47;15.57;;;2.50;;
48629;SDS011;34426;52.180;4.462;2023-07-31T14:20:12;14.65;;;3.10;;
48629;SDS011;34426;52.180;4.462;2023-07-31T14:22:38;15.95;;;2.88;;
48629;SDS011;34426;52.180;4.462;2023-07-31T14:25:07;13.32;;;2.55;;
48629;SDS011;34426;52.180;4.462;2023-07-31T14:27:34;13.52;;;2.63;;
48629;SDS011;34426;52.180;4.462;2023-07-31T14:30:00;11.40;;;2.40;;